Gildeskaal — LLDI — position and weather

sailwx.info

Track history (hours):
 
Tides and Currents Weather Stations Pressure Air Temp Water Temp Dewpoint Dewpoint Depression Visibility Wind Speed Wind Dir Waves Ship Positions

Gildeskaal

Last reported at 2014-Nov-24 20:22 UTC. Time now 2014-Nov-25 01:45 UTC.
Position N 67°08' E 013°59'.

Length 52 m; draft 3.2 m.

Type: Ship. MMSI: 259680000.

Date/timePositionNaut miles runAvg speedWind from/ knotsBaromVisibWave heightAir tempDewpointWater temp
2014-Nov-24 20:22N 67°08' E 013°59'3 2.8
2014-Nov-24 19:18N 67°05' E 013°60'1 1.9
2014-Nov-24 18:33N 67°07' E 013°59'2 1.6
2014-Nov-24 17:33N 67°05' E 014°00'3 0.8
2014-Nov-24 13:29N 67°08' E 013°59'2 0.7
2014-Nov-24 10:31N 67°06' E 013°59'0 0.2
2014-Nov-24 08:30N 67°06' E 013°59'1 0.6
2014-Nov-24 06:22N 67°05' E 013°60'3 0.3
2014-Nov-23 20:09N 67°08' E 013°59'3 1.6
2014-Nov-23 18:17N 67°05' E 014°00'3 3.5
2014-Nov-23 17:33N 67°08' E 013°58'3 1.8
2014-Nov-23 16:08N 67°05' E 014°00'3 5.0
2014-Nov-23 15:32N 67°08' E 013°59'1 0.8
2014-Nov-23 14:33N 67°07' E 013°59'2 0.3
2014-Nov-23 09:09N 67°06' E 013°60'2 2.9
2014-Nov-23 08:33N 67°08' E 013°59'1 0.1
2014-Nov-22 16:23N 67°06' E 013°59'0 0.0
2014-Nov-22 10:30N 67°06' E 013°59'1 0.4
2014-Nov-22 08:33N 67°07' E 013°59'1 0.8
2014-Nov-22 07:16N 67°06' E 013°59'2 2.3
2014-Nov-22 06:15N 67°08' E 013°59'0 0.0
2014-Nov-22 05:27N 67°08' E 013°59'0 0.0
2014-Nov-22 04:33N 67°08' E 013°59'0 0.0
2014-Nov-22 03:19N 67°08' E 013°59'0 0.0
2014-Nov-22 02:22N 67°08' E 013°59'0 0.0
2014-Nov-21 23:32N 67°08' E 013°59'0 0.0
2014-Nov-21 22:10N 67°08' E 013°59'0 0.0
2014-Nov-21 20:21N 67°08' E 013°59'3 2.4
2014-Nov-21 19:16N 67°06' E 013°59'1 1.6
2014-Nov-21 18:31N 67°07' E 013°59'1 1.5
2014-Nov-21 17:33N 67°05' E 013°60'3 2.8
2014-Nov-21 16:32N 67°08' E 013°59'3 1.3
2014-Nov-21 14:21N 67°05' E 014°00'3 3.7
2014-Nov-21 13:33N 67°08' E 013°59'0 0.0
2014-Nov-21 12:34N 67°08' E 013°59'2 0.9
2014-Nov-21 10:28N 67°06' E 013°59'1 0.3
2014-Nov-21 06:22N 67°05' E 014°00'3 0.7
2014-Nov-21 02:30N 67°08' E 013°59'0 0.0
2014-Nov-20 20:19N 67°08' E 013°59'3 3.0
2014-Nov-20 19:20N 67°05' E 014°00'2 2.7
2014-Nov-20 18:33N 67°07' E 013°59'2 1.4
2014-Nov-20 17:26N 67°06' E 013°59'2 1.8
2014-Nov-20 16:07N 67°08' E 013°59'2 0.9
2014-Nov-20 14:11N 67°06' E 013°59'0 0.1
2014-Nov-20 10:28N 67°06' E 013°59'1 0.6
2014-Nov-20 08:33N 67°07' E 013°59'2 0.9
2014-Nov-20 06:21N 67°05' E 014°00'3 1.6
2014-Nov-20 04:30N 67°08' E 013°59'0 0.0
2014-Nov-20 03:30N 67°08' E 013°59'0 0.0
2014-Nov-19 20:20N 67°08' E 013°59'3 2.5
2014-Nov-19 19:10N 67°05' E 014°00'1 1.2
2014-Nov-19 18:29N 67°06' E 013°59'1 0.9
2014-Nov-19 17:32N 67°05' E 014°00'1 0.5
2014-Nov-19 14:31N 67°05' E 014°04'2 0.6
2014-Nov-19 10:30N 67°06' E 013°59'1 0.1
2014-Nov-19 06:18N 67°06' E 013°59'3 0.3
2014-Nov-18 20:28N 67°08' E 013°59'2 2.1
2014-Nov-18 19:19N 67°06' E 013°59'0 0.6
2014-Nov-18 18:33N 67°06' E 013°59'0 0.4
2014-Nov-18 17:32N 67°06' E 013°59'2 1.6
2014-Nov-18 16:05N 67°08' E 013°59'2 1.0
2014-Nov-18 14:14N 67°06' E 013°59'0 0.1
2014-Nov-18 10:27N 67°07' E 013°59'1 1.5
2014-Nov-18 09:31N 67°08' E 013°59'2 0.7
2014-Nov-18 06:15N 67°06' E 013°59'2 0.7
2014-Nov-18 03:14N 67°08' E 013°59'0 0.0
2014-Nov-18 02:17N 67°08' E 013°59'0 0.0
2014-Nov-17 20:19N 67°08' E 013°59'3 2.1
2014-Nov-17 19:07N 67°06' E 013°59'2 3.4
2014-Nov-17 18:33N 67°08' E 013°59'2 1.8
2014-Nov-17 17:28N 67°06' E 013°59'3 2.7
2014-Nov-17 16:32N 67°08' E 013°59'0 0.0
2014-Nov-17 13:33N 67°08' E 013°59'2 0.7
2014-Nov-17 10:29N 67°06' E 013°59'2 2.2
2014-Nov-17 09:33N 67°08' E 013°59'1 1.3
2014-Nov-17 08:31N 67°07' E 013°59'1 0.4
2014-Nov-17 06:16N 67°06' E 013°59'2 3.0
2014-Nov-17 05:32N 67°08' E 013°59'0 0.0
2014-Nov-17 04:31N 67°08' E 013°59'0 0.0
2014-Nov-17 03:20N 67°08' E 013°59'0 0.0
2014-Nov-16 20:12N 67°08' E 013°59'3 1.5
2014-Nov-16 18:18N 67°05' E 014°00'1 1.1
2014-Nov-16 17:29N 67°06' E 013°59'1 0.6
2014-Nov-16 16:07N 67°05' E 013°60'3 5.2
2014-Nov-16 15:33N 67°08' E 013°59'1 0.6
2014-Nov-16 14:33N 67°08' E 013°59'1 0.2
2014-Nov-16 09:03N 67°06' E 013°59'1 2.6
2014-Nov-16 08:33N 67°08' E 013°59'2 0.1
2014-Nov-15 16:29N 67°06' E 013°59'1 0.1
2014-Nov-15 10:29N 67°06' E 013°59'2 2.0
2014-Nov-15 09:31N 67°08' E 013°59'0 0.5
2014-Nov-15 08:33N 67°08' E 013°59'2 1.2
2014-Nov-15 07:15N 67°06' E 013°59'2 0.3
2014-Nov-14 23:33N 67°08' E 013°59'0 0.0
2014-Nov-14 20:23N 67°08' E 013°59'  
Track history (hours):
 
Tides and Currents Weather Stations Pressure Air Temp Water Temp Dewpoint Dewpoint Depression Visibility Wind Speed Wind Dir Waves Ship Positions

Gildeskaal

Last reported at 2014-Nov-24 20:22 UTC. Time now 2014-Nov-25 01:45 UTC.
Position N 67°08' E 013°59'.

Length 52 m; draft 3.2 m.

Type: Ship. MMSI: 259680000.

Date/timePositionNaut miles runAvg speedWind from/ knotsBaromVisibWave heightAir tempDewpointWater temp
2014-Nov-24 20:22N 67°08' E 013°59'3 2.8
2014-Nov-24 19:18N 67°05' E 013°60'1 1.9
2014-Nov-24 18:33N 67°07' E 013°59'2 1.6
2014-Nov-24 17:33N 67°05' E 014°00'3 0.8
2014-Nov-24 13:29N 67°08' E 013°59'2 0.7
2014-Nov-24 10:31N 67°06' E 013°59'0 0.2
2014-Nov-24 08:30N 67°06' E 013°59'1 0.6
2014-Nov-24 06:22N 67°05' E 013°60'3 0.3
2014-Nov-23 20:09N 67°08' E 013°59'3 1.6
2014-Nov-23 18:17N 67°05' E 014°00'3 3.5
2014-Nov-23 17:33N 67°08' E 013°58'3 1.8
2014-Nov-23 16:08N 67°05' E 014°00'3 5.0
2014-Nov-23 15:32N 67°08' E 013°59'1 0.8
2014-Nov-23 14:33N 67°07' E 013°59'2 0.3
2014-Nov-23 09:09N 67°06' E 013°60'2 2.9
2014-Nov-23 08:33N 67°08' E 013°59'1 0.1
2014-Nov-22 16:23N 67°06' E 013°59'0 0.0
2014-Nov-22 10:30N 67°06' E 013°59'1 0.4
2014-Nov-22 08:33N 67°07' E 013°59'1 0.8
2014-Nov-22 07:16N 67°06' E 013°59'2 2.3
2014-Nov-22 06:15N 67°08' E 013°59'0 0.0
2014-Nov-22 05:27N 67°08' E 013°59'0 0.0
2014-Nov-22 04:33N 67°08' E 013°59'0 0.0
2014-Nov-22 03:19N 67°08' E 013°59'0 0.0
2014-Nov-22 02:22N 67°08' E 013°59'0 0.0
2014-Nov-21 23:32N 67°08' E 013°59'0 0.0
2014-Nov-21 22:10N 67°08' E 013°59'0 0.0
2014-Nov-21 20:21N 67°08' E 013°59'3 2.4
2014-Nov-21 19:16N 67°06' E 013°59'1 1.6
2014-Nov-21 18:31N 67°07' E 013°59'1 1.5
2014-Nov-21 17:33N 67°05' E 013°60'3 2.8
2014-Nov-21 16:32N 67°08' E 013°59'3 1.3
2014-Nov-21 14:21N 67°05' E 014°00'3 3.7
2014-Nov-21 13:33N 67°08' E 013°59'0 0.0
2014-Nov-21 12:34N 67°08' E 013°59'2 0.9
2014-Nov-21 10:28N 67°06' E 013°59'1 0.3
2014-Nov-21 06:22N 67°05' E 014°00'3 0.7
2014-Nov-21 02:30N 67°08' E 013°59'0 0.0
2014-Nov-20 20:19N 67°08' E 013°59'3 3.0
2014-Nov-20 19:20N 67°05' E 014°00'2 2.7
2014-Nov-20 18:33N 67°07' E 013°59'2 1.4
2014-Nov-20 17:26N 67°06' E 013°59'2 1.8
2014-Nov-20 16:07N 67°08' E 013°59'2 0.9
2014-Nov-20 14:11N 67°06' E 013°59'0 0.1
2014-Nov-20 10:28N 67°06' E 013°59'1 0.6
2014-Nov-20 08:33N 67°07' E 013°59'2 0.9
2014-Nov-20 06:21N 67°05' E 014°00'3 1.6
2014-Nov-20 04:30N 67°08' E 013°59'0 0.0
2014-Nov-20 03:30N 67°08' E 013°59'0 0.0
2014-Nov-19 20:20N 67°08' E 013°59'3 2.5
2014-Nov-19 19:10N 67°05' E 014°00'1 1.2
2014-Nov-19 18:29N 67°06' E 013°59'1 0.9
2014-Nov-19 17:32N 67°05' E 014°00'1 0.5
2014-Nov-19 14:31N 67°05' E 014°04'2 0.6
2014-Nov-19 10:30N 67°06' E 013°59'1 0.1
2014-Nov-19 06:18N 67°06' E 013°59'3 0.3
2014-Nov-18 20:28N 67°08' E 013°59'2 2.1
2014-Nov-18 19:19N 67°06' E 013°59'0 0.6
2014-Nov-18 18:33N 67°06' E 013°59'0 0.4
2014-Nov-18 17:32N 67°06' E 013°59'2 1.6
2014-Nov-18 16:05N 67°08' E 013°59'2 1.0
2014-Nov-18 14:14N 67°06' E 013°59'0 0.1
2014-Nov-18 10:27N 67°07' E 013°59'1 1.5
2014-Nov-18 09:31N 67°08' E 013°59'2 0.7
2014-Nov-18 06:15N 67°06' E 013°59'2 0.7
2014-Nov-18 03:14N 67°08' E 013°59'0 0.0
2014-Nov-18 02:17N 67°08' E 013°59'0 0.0
2014-Nov-17 20:19N 67°08' E 013°59'3 2.1
2014-Nov-17 19:07N 67°06' E 013°59'2 3.4
2014-Nov-17 18:33N 67°08' E 013°59'2 1.8
2014-Nov-17 17:28N 67°06' E 013°59'3 2.7
2014-Nov-17 16:32N 67°08' E 013°59'0 0.0
2014-Nov-17 13:33N 67°08' E 013°59'2 0.7
2014-Nov-17 10:29N 67°06' E 013°59'2 2.2
2014-Nov-17 09:33N 67°08' E 013°59'1 1.3
2014-Nov-17 08:31N 67°07' E 013°59'1 0.4
2014-Nov-17 06:16N 67°06' E 013°59'2 3.0
2014-Nov-17 05:32N 67°08' E 013°59'0 0.0
2014-Nov-17 04:31N 67°08' E 013°59'0 0.0
2014-Nov-17 03:20N 67°08' E 013°59'0 0.0
2014-Nov-16 20:12N 67°08' E 013°59'3 1.5
2014-Nov-16 18:18N 67°05' E 014°00'1 1.1
2014-Nov-16 17:29N 67°06' E 013°59'1 0.6
2014-Nov-16 16:07N 67°05' E 013°60'3 5.2
2014-Nov-16 15:33N 67°08' E 013°59'1 0.6
2014-Nov-16 14:33N 67°08' E 013°59'1 0.2
2014-Nov-16 09:03N 67°06' E 013°59'1 2.6
2014-Nov-16 08:33N 67°08' E 013°59'2 0.1
2014-Nov-15 16:29N 67°06' E 013°59'1 0.1
2014-Nov-15 10:29N 67°06' E 013°59'2 2.0
2014-Nov-15 09:31N 67°08' E 013°59'0 0.5
2014-Nov-15 08:33N 67°08' E 013°59'2 1.2
2014-Nov-15 07:15N 67°06' E 013°59'2 0.3
2014-Nov-14 23:33N 67°08' E 013°59'0 0.0
2014-Nov-14 20:23N 67°08' E 013°59'  

Dump ship's entire track history